createdAt,value
2019-02-18T00:04:28.787Z,32.1
2019-02-18T00:09:30.145Z,32.1
2019-02-18T00:14:31.474Z,32.1
2019-02-18T00:19:35.836Z,32
2019-02-18T00:24:38.566Z,32
2019-02-18T00:29:44.571Z,31.9
2019-02-18T00:34:46.621Z,31.9
2019-02-18T00:39:48.946Z,31.9
2019-02-18T00:45:03.286Z,31.9
2019-02-18T00:50:04.566Z,31.8
2019-02-18T00:55:15.460Z,31.8
2019-02-18T01:00:16.754Z,31.8
2019-02-18T01:05:18.780Z,31.8
2019-02-18T01:10:41.919Z,31.7
2019-02-18T01:15:46.898Z,31.7
2019-02-18T01:21:07.024Z,31.6
2019-02-18T01:26:08.339Z,31.6
2019-02-18T01:31:10.656Z,31.6
2019-02-18T01:36:18.933Z,31.6
2019-02-18T01:41:23.173Z,31.6
2019-02-18T01:46:25.016Z,31.5
2019-02-18T01:51:26.299Z,31.5
2019-02-18T01:56:27.686Z,31.4
2019-02-18T02:01:29.050Z,31.4
2019-02-18T02:06:33.065Z,31.4
2019-02-18T02:11:35.075Z,31.4
2019-02-18T02:16:36.420Z,31.4
2019-02-18T02:21:41.663Z,31.3
2019-02-18T02:26:43.211Z,31.3
2019-02-18T02:31:44.541Z,31.2
2019-02-18T02:36:45.912Z,31.2
2019-02-18T02:41:47.297Z,31.2
2019-02-18T02:46:58.088Z,31.2
2019-02-18T02:51:59.358Z,31.2
2019-02-18T02:57:01.387Z,31.2
2019-02-18T03:02:04.431Z,31.1
2019-02-18T03:07:09.653Z,31.1
2019-02-18T03:12:10.901Z,31.1
2019-02-18T03:17:12.170Z,31.1
2019-02-18T03:22:16.398Z,31.1
2019-02-18T03:27:26.651Z,31.1
2019-02-18T03:32:28.602Z,31
2019-02-18T03:37:30.955Z,31
2019-02-18T03:47:45.504Z,30.9
2019-02-18T03:52:46.816Z,30.9
2019-02-18T03:57:51.144Z,30.9
2019-02-18T04:02:55.554Z,30.9
2019-02-18T05:05:00.337Z,30.6
2019-02-18T05:10:05.599Z,30.6
2019-02-18T05:15:08.123Z,30.6
2019-02-18T05:20:11.104Z,30.6
2019-02-18T05:25:13.143Z,30.6
2019-02-18T05:30:17.066Z,30.5
2019-02-18T05:35:18.424Z,30.5
2019-02-18T05:40:21.236Z,30.5
2019-02-18T05:45:25.320Z,30.4
2019-02-18T05:55:43.193Z,30.4
2019-02-18T06:00:53.626Z,30.3
2019-02-18T06:05:57.849Z,30.1
2019-02-18T06:11:00.154Z,30.1
2019-02-18T06:16:02.517Z,30.1
2019-02-18T06:21:09.861Z,30.1
2019-02-18T06:26:12.337Z,30.1
2019-02-18T06:31:16.625Z,30.1
2019-02-18T06:36:23.736Z,30.1
2019-02-18T06:41:25.328Z,30
2019-02-18T06:46:26.635Z,30
2019-02-18T06:51:27.957Z,30
2019-02-18T06:56:29.265Z,30
2019-02-18T07:01:30.781Z,29.9
2019-02-18T07:06:35.025Z,29.9
2019-02-18T07:11:36.316Z,29.9
2019-02-18T07:16:40.709Z,29.9
2019-02-18T07:21:43.712Z,29.9
2019-02-18T07:26:45.023Z,29.9
2019-02-18T07:31:50.746Z,29.9
2019-02-18T07:36:52.843Z,29.9
2019-02-18T07:41:54.151Z,29.8
2019-02-18T07:46:55.818Z,29.8
2019-02-18T07:51:57.114Z,29.8
2019-02-18T07:56:59.882Z,29.8
2019-02-18T08:02:01.150Z,29.8
2019-02-18T08:07:02.455Z,29.8
2019-02-18T08:17:14.014Z,29.8
2019-02-18T08:22:24.500Z,29.7
2019-02-18T08:27:26.815Z,29.7
2019-02-18T08:32:35.542Z,29.7
2019-02-18T08:37:36.821Z,29.6
2019-02-18T08:42:39.029Z,29.6
2019-02-18T08:47:43.223Z,29.6
2019-02-18T08:52:47.263Z,29.6
2019-02-18T08:57:49.576Z,29.6
2019-02-18T09:02:51.875Z,29.6
2019-02-18T09:13:01.556Z,29.6
2019-02-18T09:18:03.176Z,29.5
2019-02-18T09:23:07.960Z,29.5
2019-02-18T09:28:09.215Z,29.5
2019-02-18T09:33:10.471Z,29.5
2019-02-18T09:38:24.264Z,29.4
2019-02-18T09:43:27.700Z,29.4
2019-02-18T09:48:34.774Z,29.4
2019-02-18T09:53:38.408Z,29.4
2019-02-18T09:58:39.664Z,29.4
2019-02-18T10:03:44.441Z,29.4
2019-02-18T10:08:56.303Z,29.4
2019-02-18T10:13:57.593Z,29.4
2019-02-18T10:19:01.586Z,29.4
2019-02-18T10:24:05.528Z,29.3
2019-02-18T10:29:09.750Z,29.3
2019-02-18T10:34:10.987Z,29.3
2019-02-18T10:39:15.240Z,29.3
2019-02-18T10:44:17.764Z,29.3
2019-02-18T10:49:19.970Z,29.3
2019-02-18T10:54:23.550Z,29.3
2019-02-18T10:59:24.855Z,29.3
2019-02-18T11:04:26.724Z,29.3
2019-02-18T11:09:27.986Z,29.2
2019-02-18T11:14:29.339Z,29.2
2019-02-18T11:19:31.610Z,29.2
2019-02-18T11:24:32.863Z,29.2
2019-02-18T11:29:38.877Z,29.2
2019-02-18T11:34:43.887Z,29.1
2019-02-18T11:39:45.453Z,29.1
2019-02-18T11:44:46.723Z,29.1
2019-02-18T11:49:47.988Z,29.1
2019-02-18T11:54:50.096Z,29.1
2019-02-18T11:59:51.348Z,29.1
2019-02-18T12:04:52.819Z,29.1
2019-02-18T12:09:54.091Z,29.1
2019-02-18T12:14:55.348Z,29.1
2019-02-18T12:19:56.613Z,29
2019-02-18T12:24:58.904Z,29
2019-02-18T12:30:07.974Z,29
2019-02-18T12:35:09.224Z,29
2019-02-18T12:40:15.137Z,29
2019-02-18T12:45:17.260Z,28.9
2019-02-18T12:50:39.759Z,28.9
2019-02-18T12:55:44.136Z,28.9
2019-02-18T13:00:46.437Z,28.9
2019-02-18T13:05:52.554Z,28.9
2019-02-18T13:11:17.396Z,28.9
2019-02-18T13:16:21.679Z,28.9
2019-02-18T13:21:23.913Z,28.9
2019-02-18T13:26:29.041Z,28.9
2019-02-18T13:31:31.406Z,28.8
2019-02-18T13:36:36.631Z,28.9
2019-02-18T13:41:39.625Z,28.8
2019-02-18T13:46:42.122Z,28.8
2019-02-18T13:51:46.322Z,28.8
2019-02-18T13:56:48.648Z,28.8
2019-02-18T14:01:50.695Z,28.7
2019-02-18T14:06:52.748Z,28.8
2019-02-18T14:11:57.848Z,28.7
2019-02-18T14:16:59.782Z,28.7
2019-02-18T14:22:01.530Z,28.7
2019-02-18T14:27:11.682Z,28.7
2019-02-18T14:32:13.831Z,28.7
2019-02-18T14:37:15.773Z,28.7
2019-02-18T14:42:24.416Z,28.7
2019-02-18T14:47:26.952Z,28.7
2019-02-18T14:52:31.857Z,28.6
2019-02-18T14:57:33.147Z,28.6
2019-02-18T15:02:34.391Z,28.6
2019-02-18T15:07:38.044Z,28.6
2019-02-18T15:12:42.437Z,28.6
2019-02-18T15:17:46.620Z,28.6
2019-02-18T15:22:47.929Z,28.6
2019-02-18T15:27:52.112Z,28.6
2019-02-18T15:32:54.187Z,28.6
2019-02-18T15:37:59.152Z,28.6
2019-02-18T15:43:00.380Z,28.6
2019-02-18T15:48:02.060Z,28.6
2019-02-18T15:53:06.612Z,28.5
2019-02-18T15:58:07.888Z,28.5
2019-02-18T16:03:09.135Z,28.5
2019-02-18T16:08:14.018Z,28.5
2019-02-18T16:13:15.319Z,28.5
2019-02-18T16:18:16.588Z,28.4
2019-02-18T16:23:24.809Z,28.4
2019-02-18T16:28:29.443Z,28.4
2019-02-18T16:33:30.706Z,28.4
2019-02-18T16:38:33.019Z,28.4
2019-02-18T16:43:35.451Z,28.4
2019-02-18T16:48:42.429Z,28.4
2019-02-18T16:53:44.252Z,28.4
2019-02-18T16:58:45.606Z,28.4
2019-02-18T17:03:46.826Z,28.4
2019-02-18T17:08:51.526Z,28.4
2019-02-18T17:13:52.795Z,28.3
2019-02-18T17:18:58.706Z,28.3
2019-02-18T17:23:59.936Z,28.3
2019-02-18T17:29:01.170Z,28.3
2019-02-18T17:34:02.449Z,28.9
2019-02-18T17:39:09.545Z,32.5
2019-02-18T17:49:20.040Z,37.1
2019-02-18T17:54:21.865Z,38.6
2019-02-18T17:59:23.501Z,39.7
2019-02-18T18:04:25.972Z,40.8
2019-02-18T18:09:27.838Z,41.7
2019-02-18T18:14:29.686Z,42.2
2019-02-18T18:19:31.398Z,43
2019-02-18T18:24:36.914Z,43.6
2019-02-18T18:29:38.641Z,44.2
2019-02-18T18:34:40.617Z,44.7
2019-02-18T18:39:46.091Z,45.2
2019-02-18T18:44:47.847Z,45.7
2019-02-18T18:49:50.774Z,46.1
2019-02-18T18:54:56.188Z,46.4
2019-02-18T18:59:57.987Z,46.6
2019-02-18T19:04:59.878Z,46.7
2019-02-18T19:10:01.644Z,46.9
2019-02-18T19:15:03.491Z,46.9
2019-02-18T19:20:05.485Z,47.1
2019-02-18T19:25:07.231Z,47.1
2019-02-18T19:30:20.693Z,47.1
2019-02-18T19:35:23.817Z,46.9
2019-02-18T19:40:30.497Z,46.6
2019-02-18T19:45:32.277Z,46.5
2019-02-18T19:50:34.688Z,46.5
2019-02-18T19:55:38.686Z,46.4
2019-02-18T20:00:40.426Z,46.4
2019-02-18T20:05:44.909Z,46.4
2019-02-18T20:10:51.492Z,46.3
2019-02-18T20:15:56.457Z,45.6
2019-02-18T20:21:00.960Z,45.2
2019-02-18T20:26:08.393Z,45.2
2019-02-18T20:31:10.103Z,45.1
2019-02-18T20:36:12.684Z,45.1
2019-02-18T20:41:15.001Z,45
2019-02-18T20:46:17.764Z,44.9
2019-02-18T20:51:20.728Z,44.9
2019-02-18T21:01:28.766Z,44.7
2019-02-18T21:06:33.263Z,44.6
2019-02-18T21:11:36.796Z,44.6
2019-02-18T21:16:45.209Z,44.5
2019-02-18T21:21:47.936Z,44.4
2019-02-18T21:26:49.843Z,44.4
2019-02-18T21:36:57.788Z,44.2
2019-02-18T21:42:00.990Z,44.1
2019-02-18T21:47:02.684Z,44.1
2019-02-18T21:52:05.021Z,44
2019-02-18T21:57:07.050Z,43.9
2019-02-18T22:02:23.273Z,43.8
2019-02-18T22:07:28.107Z,43.7
2019-02-18T22:12:33.081Z,43.7
2019-02-18T22:17:37.879Z,43.6
2019-02-18T22:22:39.563Z,43.6
2019-02-18T22:27:46.001Z,43.4
2019-02-18T22:32:49.279Z,43.4
2019-02-18T22:37:51.221Z,43.3
2019-02-18T22:42:54.337Z,43.3
2019-02-18T22:48:17.040Z,43.2
2019-02-18T22:53:21.664Z,43.1
2019-02-18T22:58:23.471Z,43
2019-02-18T23:03:29.064Z,42.9
2019-02-18T23:08:40.226Z,42.9
2019-02-18T23:13:41.890Z,42.8
2019-02-18T23:18:45.394Z,42.7
2019-02-18T23:23:50.536Z,42.7
2019-02-18T23:28:58.201Z,42.6
2019-02-18T23:33:59.931Z,42.5
2019-02-18T23:39:02.582Z,42.4
2019-02-18T23:44:04.940Z,42.4
2019-02-18T23:49:07.667Z,42.3
2019-02-18T23:54:58.238Z,42.2
2019-02-18T23:59:59.860Z,42.1
